HomeShort term forecast

Short term forecast

Graphical weather forecast for for Montreal:

Short term forecast

The above graphic is automatically refreshed every 3 hours.

Hourly Experimental Weather Forecast for the next 72 hours


 Date & Hour   Temp   Feel   Baro   Hum   Speed & Bearing   Wind Gust   Precip.%   Precip.   Visibility   Cloud cover   Conditions 
 03/03/2024 - 07:00  1.4°C  -1.0°C  1024.3 hPa  96%  7.9 km/h   17.0 km/h  0%  --  7.5 km  98%  Cloudy sky 
 03/03/2024 - 08:00  2.0°C  -0.5°C  1024.7 hPa  94%  8.4 km/h   19.4 km/h  0%  --  8.8 km  98%  Cloudy sky 
 03/03/2024 - 09:00  2.8°C  0.5°C  1025.1 hPa  93%  8.1 km/h   20.8 km/h  0%  --  10.2 km  98%  Cloudy sky 
 03/03/2024 - 10:00  3.9°C  1.9°C  1025.3 hPa  90%  7.7 km/h   21.9 km/h  0%  --  13.2 km  96%  Cloudy sky 
 03/03/2024 - 11:00  4.9°C  3.2°C  1025.4 hPa  88%  7.2 km/h   20.0 km/h  0%  --  18.9 km  96%  Cloudy sky 
 03/03/2024 - 12:00  5.8°C  4.6°C  1025.4 hPa  84%  6.3 km/h   17.8 km/h  0%  --  20.4 km  96%  Cloudy sky 
 03/03/2024 - 13:00  6.5°C  5.7°C  1025.3 hPa  81%  5.3 km/h   14.3 km/h  0%  --  21.2 km  97%  Cloudy sky 
 03/03/2024 - 14:00  7.2°C  6.4°C  1025.1 hPa  78%  4.7 km/h   12.4 km/h  0%  --  23.1 km  84%  Mostly cloudy 
 03/03/2024 - 15:00  7.7°C  6.9°C  1024.9 hPa  76%  4.4 km/h   11.8 km/h  0%  --  24.1 km  68%  Mostly cloudy 
 03/03/2024 - 16:00  7.9°C  7.1°C  1024.9 hPa  76%  4.3 km/h   10.4 km/h  0%  --  24.6 km  63%  Mostly cloudy 
 03/03/2024 - 17:00  6.7°C  6.0°C  1025.3 hPa  80%  4.7 km/h   9.2 km/h  0%  --  24.3 km  60%  Partly cloudy 
 03/03/2024 - 18:00  5.4°C  4.4°C  1025.7 hPa  84%  5.1 km/h   10.4 km/h  0%  --  21.9 km  56%  Partly cloudy 
 03/03/2024 - 19:00  4.5°C  3.4°C  1025.9 hPa  86%  5.3 km/h   10.7 km/h  0%  --  21.2 km  64%  Mostly cloudy 
 03/03/2024 - 20:00  3.9°C  2.8°C  1026.1 hPa  86%  5.2 km/h   9.5 km/h  0%  --  20.9 km  62%  Partly cloudy 
 03/03/2024 - 21:00  3.4°C  2.2°C  1026.4 hPa  87%  5.1 km/h   9.1 km/h  0%  --  20.2 km  71%  Mostly cloudy 
 03/03/2024 - 22:00  3.0°C  1.6°C  1026.6 hPa  88%  5.6 km/h   8.9 km/h  0%  --  20.9 km  70%  Mostly cloudy 
 03/03/2024 - 23:00  2.4°C  1.0°C  1026.7 hPa  88%  5.2 km/h   8.7 km/h  0%  --  17.7 km  76%  Mostly cloudy 
 04/03/2024 - 00:00  1.9°C  0.4°C  1026.8 hPa  90%  5.5 km/h   10.8 km/h  0%  --  18.8 km  78%  Mostly cloudy 
 04/03/2024 - 01:00  1.5°C  -0.7°C  1027.1 hPa  91%  7.2 km/h   15.1 km/h  0%  --  17.3 km  79%  Mostly cloudy 
 04/03/2024 - 02:00  1.2°C  -1.3°C  1027.4 hPa  92%  7.9 km/h   16.8 km/h  0%  --  17.1 km  80%  Mostly cloudy 
 04/03/2024 - 03:00  0.8°C  -2.0°C  1027.6 hPa  93%  8.7 km/h   18.2 km/h  0%  --  15.4 km  92%  Cloudy sky 
 04/03/2024 - 04:00  1.1°C  -1.9°C  1027.9 hPa  93%  9.5 km/h   19.0 km/h  0%  --  16.5 km  92%  Cloudy sky 
 04/03/2024 - 05:00  1.2°C  -1.8°C  1028.3 hPa  94%  9.5 km/h   18.2 km/h  0%  --  14.5 km  98%  Cloudy sky 
 04/03/2024 - 06:00  1.3°C  -1.8°C  1028.5 hPa  94%  9.8 km/h   18.2 km/h  0%  --  11.6 km  99%  Cloudy sky 
 04/03/2024 - 07:00  1.5°C  -1.5°C  1028.7 hPa  94%  9.6 km/h   17.8 km/h  0%  --  16.2 km  99%  Cloudy sky 
 04/03/2024 - 08:00  2.2°C  -0.6°C  1028.9 hPa  93%  9.9 km/h   18.7 km/h  0%  --  19.8 km  98%  Cloudy sky 
 04/03/2024 - 09:00  2.9°C  0.1°C  1028.9 hPa  91%  10.1 km/h   19.7 km/h  0%  --  22.0 km  97%  Cloudy sky 
 04/03/2024 - 10:00  3.8°C  1.1°C  1028.8 hPa  89%  10.6 km/h   20.1 km/h  0%  --  21.9 km  96%  Cloudy sky 
 04/03/2024 - 11:00  5.0°C  2.4°C  1028.4 hPa  86%  11.3 km/h   20.4 km/h  0%  --  15.5 km  88%  Cloudy sky 
 04/03/2024 - 12:00  6.7°C  4.4°C  1027.8 hPa  83%  11.5 km/h   21.8 km/h  0%  --  23.8 km  89%  Cloudy sky 
 04/03/2024 - 13:00  8.5°C  6.6°C  1027.1 hPa  80%  11.3 km/h   22.0 km/h  0%  --  25.5 km  88%  Cloudy sky 
 04/03/2024 - 14:00  10.0°C  8.5°C  1026.3 hPa  76%  11.0 km/h   22.1 km/h  0%  --  31.4 km  87%  Mostly cloudy 
 04/03/2024 - 15:00  11.1°C  10.4°C  1025.6 hPa  74%  10.4 km/h   20.5 km/h  0%  --  31.6 km  86%  Mostly cloudy 
 04/03/2024 - 16:00  11.6°C  10.9°C  1025.2 hPa  75%  10.6 km/h   21.1 km/h  0%  --  31.8 km  74%  Mostly cloudy 
 04/03/2024 - 17:00  10.7°C  10.0°C  1025.0 hPa  77%  11.6 km/h   23.7 km/h  0%  --  28.9 km  73%  Mostly cloudy 
 04/03/2024 - 18:00  9.6°C  7.7°C  1025.0 hPa  80%  12.8 km/h   25.5 km/h  0%  --  29.9 km  70%  Mostly cloudy 
 04/03/2024 - 19:00  9.0°C  6.9°C  1025.1 hPa  82%  13.5 km/h   25.2 km/h  0%  --  24.6 km  67%  Mostly cloudy 
 04/03/2024 - 20:00  8.5°C  6.1°C  1025.0 hPa  84%  14.7 km/h   26.5 km/h  0%  --  23.8 km  66%  Mostly cloudy 
 04/03/2024 - 21:00  8.0°C  5.5°C  1025.0 hPa  85%  14.7 km/h   26.3 km/h  0%  --  24.0 km  62%  Partly cloudy 
 04/03/2024 - 22:00  7.6°C  5.1°C  1024.9 hPa  86%  14.5 km/h   28.5 km/h  0%  --  24.2 km  65%  Mostly cloudy 
 04/03/2024 - 23:00  7.4°C  4.7°C  1024.7 hPa  87%  15.3 km/h   30.4 km/h  0%  --  24.7 km  57%  Partly cloudy 
 05/03/2024 - 00:00  7.1°C  4.3°C  1024.5 hPa  89%  15.4 km/h   31.4 km/h  0%  --  25.1 km  52%  Partly cloudy 
 05/03/2024 - 01:00  6.8°C  4.0°C  1024.3 hPa  90%  14.7 km/h   30.0 km/h  0%  --  24.9 km  41%  Partly cloudy 
 05/03/2024 - 02:00  6.3°C  3.5°C  1024.0 hPa  90%  13.9 km/h   29.9 km/h  0%  --  25.2 km  36%  Mostly clear 
 05/03/2024 - 03:00  6.0°C  3.1°C  1023.5 hPa  90%  14.1 km/h   30.5 km/h  0%  --  23.8 km  36%  Mostly clear 
 05/03/2024 - 04:00  5.7°C  2.7°C  1023.2 hPa  90%  14.0 km/h   31.0 km/h  0%  --  23.4 km  41%  Partly cloudy 
 05/03/2024 - 05:00  5.3°C  2.3°C  1023.2 hPa  91%  13.8 km/h   30.5 km/h  0%  --  22.7 km  48%  Partly cloudy 
 05/03/2024 - 06:00  5.1°C  2.0°C  1023.4 hPa  91%  13.6 km/h   29.5 km/h  0%  --  22.3 km  58%  Partly cloudy 
 05/03/2024 - 07:00  5.3°C  2.3°C  1023.4 hPa  91%  13.6 km/h   29.7 km/h  0%  --  22.4 km  59%  Partly cloudy 
 05/03/2024 - 08:00  6.0°C  3.2°C  1023.2 hPa  89%  14.1 km/h   30.2 km/h  0%  --  22.6 km  73%  Mostly cloudy 
 05/03/2024 - 09:00  7.2°C  4.4°C  1022.8 hPa  86%  14.9 km/h   30.1 km/h  0%  --  25.2 km  81%  Mostly cloudy 
 05/03/2024 - 10:00  8.7°C  6.3°C  1022.1 hPa  81%  15.2 km/h   29.3 km/h  0%  --  27.2 km  85%  Mostly cloudy 
 05/03/2024 - 11:00  10.2°C  9.4°C  1021.2 hPa  76%  15.4 km/h   29.6 km/h  0%  --  29.8 km  85%  Mostly cloudy 
 05/03/2024 - 12:00  11.2°C  10.4°C  1020.3 hPa  72%  15.8 km/h   30.6 km/h  0%  --  30.7 km  83%  Mostly cloudy 
 05/03/2024 - 13:00  11.8°C  11.1°C  1019.2 hPa  70%  15.8 km/h   31.1 km/h  0%  --  31.1 km  82%  Mostly cloudy 
 05/03/2024 - 14:00  12.2°C  11.4°C  1018.2 hPa  69%  15.3 km/h   30.3 km/h  0%  --  31.1 km  80%  Mostly cloudy 
 05/03/2024 - 15:00  12.4°C  11.6°C  1017.5 hPa  70%  15.6 km/h   31.0 km/h  0%  --  31.0 km  79%  Mostly cloudy 
 05/03/2024 - 16:00  11.6°C  10.9°C  1016.9 hPa  72%  16.5 km/h   32.6 km/h  0%  --  30.5 km  80%  Mostly cloudy 
 05/03/2024 - 17:00  10.6°C  9.9°C  1016.6 hPa  76%  16.2 km/h   32.5 km/h  0%  --  28.6 km  84%  Mostly cloudy 
 05/03/2024 - 18:00  9.4°C  7.2°C  1016.4 hPa  80%  14.8 km/h   30.2 km/h  0%  --  26.0 km  90%  Cloudy sky 
 05/03/2024 - 19:00  8.5°C  6.2°C  1016.3 hPa  84%  14.4 km/h   29.4 km/h  0%  --  23.4 km  93%  Cloudy sky 
 05/03/2024 - 20:00  7.9°C  5.6°C  1016.0 hPa  86%  13.2 km/h   25.7 km/h  0%  --  23.0 km  82%  Mostly cloudy 
 05/03/2024 - 21:00  7.5°C  5.3°C  1015.7 hPa  87%  11.8 km/h   21.7 km/h  0%  --  22.2 km  74%  Mostly cloudy 
 05/03/2024 - 22:00  7.2°C  5.3°C  1015.5 hPa  89%  10.1 km/h   16.6 km/h  0%  --  22.5 km  67%  Mostly cloudy 
 05/03/2024 - 23:00  6.7°C  5.0°C  1015.3 hPa  90%  8.6 km/h   18.5 km/h  0%  --  19.2 km  80%  Mostly cloudy 
 06/03/2024 - 00:00  6.3°C  5.0°C  1015.3 hPa  92%  6.9 km/h   19.2 km/h  0%  --  16.4 km  77%  Mostly cloudy 
 06/03/2024 - 01:00  5.7°C  4.9°C  1015.4 hPa  93%  5.0 km/h   18.7 km/h  0%  --  10.6 km  94%  Cloudy sky 
 06/03/2024 - 02:00  5.4°C  4.5°C  1015.4 hPa  93%  5.1 km/h   18.6 km/h  0%  --  13.3 km  93%  Cloudy sky 
 06/03/2024 - 03:00  5.0°C  4.0°C  1015.5 hPa  93%  5.1 km/h   16.4 km/h  0%  --  14.5 km  88%  Cloudy sky 
 06/03/2024 - 04:00  4.7°C  3.5°C  1015.8 hPa  92%  5.6 km/h   14.9 km/h  0%  --  13.2 km  85%  Mostly cloudy 
 06/03/2024 - 05:00  4.3°C  2.8°C  1016.5 hPa  92%  6.6 km/h   13.9 km/h  0%  --  13.0 km  86%  Mostly cloudy 
 06/03/2024 - 06:00  3.9°C  2.0°C  1017.4 hPa  92%  7.6 km/h   13.2 km/h  5%  0.57 mm/h  9.0 km  89%  Cloudy sky 
 06/03/2024 - 07:00  3.7°C  1.3°C  1018.4 hPa  92%  9.1 km/h   14.9 km/h  0%  --  10.9 km  91%  Cloudy sky 

Weather data sources : HRRR, GFS, Weatherkit, NOAA, Deutscher Wetterdienst, ECMWF and JMA

Never based important decision based on the weather forecast published on this website

 

Past weather and reports

Past weatherFind in this section the past weather conditions, weather archive, graphics, reports and statistics.

Current conditions

Current weather condition for MontrealAll you need to know about the current weather conditions for Montreal. Weather data is updated every 10 minutes.

Weather forecast

Current Montreal weatherSince 2004, celinium.com website has provided accurate weather forecast for Montreal's island.